Time;durP1;ratioP1;P1;durP2;ratioP2;P2;SDS_P1;SDS_P2;PMS_P1;PMS_P2;Temp;Humidity;BMP_temperature;BMP_pressure;BME280_temperature;BME280_humidity;BME280_pressure;Samples;Min_cycle;Max_cycle;Signal;HPM_P1;HPM_P2
2021/12/11 00:02:09;;;;;;;79.57;25.90;;;2.40;99.90;;;;;;5033506;28;20053;-70
2021/12/11 00:04:38;;;;;;;89.20;29.17;;;2.30;99.90;;;;;;5033825;28;20029;-71
2021/12/11 00:07:10;;;;;;;74.38;27.02;;;2.30;99.90;;;;;;5033691;28;20028;-70
2021/12/11 00:09:43;;;;;;;84.25;28.65;;;2.40;99.90;;;;;;5033677;28;20499;-70
2021/12/11 00:12:17;;;;;;;80.43;26.70;;;2.30;99.90;;;;;;5045600;28;20025;-70
2021/12/11 00:14:48;;;;;;;72.47;24.73;;;2.40;99.90;;;;;;5053650;28;20455;-71
2021/12/11 00:17:29;;;;;;;77.22;27.65;;;2.30;99.90;;;;;;5035630;28;20495;-69
2021/12/11 00:19:55;;;;;;;75.97;26.13;;;2.30;99.90;;;;;;5053506;28;20033;-70
2021/12/11 00:22:26;;;;;;;73.88;25.42;;;4.00;99.90;;;;;;5052961;28;20032;-69
2021/12/11 00:24:56;;;;;;;71.55;26.92;;;2.30;99.90;;;;;;5053238;28;20025;-70
2021/12/11 00:27:26;;;;;;;78.18;26.77;;;2.30;99.90;;;;;;5052697;28;20143;-71
2021/12/11 00:29:52;;;;;;;75.30;26.38;;;2.30;99.90;;;;;;5053154;28;20025;-68
2021/12/11 00:32:28;;;;;;;64.60;24.63;;;2.30;99.90;;;;;;5052658;28;20017;-70
2021/12/11 00:35:10;;;;;;;75.63;24.90;;;2.30;99.90;;;;;;5052922;28;20031;-71
2021/12/11 00:37:37;;;;;;;71.25;25.45;;;2.30;99.90;;;;;;5035001;28;20622;-69
2021/12/11 00:40:16;;;;;;;79.38;26.45;;;2.20;99.90;;;;;;5052522;28;20045;-70
2021/12/11 00:42:50;;;;;;;66.25;24.25;;;2.30;99.90;;;;;;5052511;28;20070;-68
2021/12/11 00:45:22;;;;;;;62.72;23.88;;;2.20;99.90;;;;;;5052567;28;20040;-70
2021/12/11 00:47:56;;;;;;;56.90;22.25;;;2.20;99.90;;;;;;5052599;28;20386;-70
2021/12/11 00:50:26;;;;;;;62.33;23.77;;;3.10;99.90;;;;;;5052658;28;20021;-70
2021/12/11 00:52:57;;;;;;;71.72;26.63;;;2.30;99.90;;;;;;5034313;28;20104;-70
2021/12/11 00:55:33;;;;;;;61.60;24.77;;;2.30;99.90;;;;;;5052792;28;20458;-71
2021/12/11 00:58:20;;;;;;;65.90;25.23;;;2.20;99.90;;;;;;5052683;28;20013;-70
2021/12/11 01:01:00;;;;;;;63.47;24.50;;;2.20;99.90;;;;;;5034405;28;20037;-70
2021/12/11 01:03:55;;;;;;;67.47;25.33;;;2.20;99.90;;;;;;5034156;28;20063;-71
2021/12/11 01:06:31;;;;;;;69.32;25.10;;;2.20;99.90;;;;;;5052759;28;20021;-70
2021/12/11 01:09:13;;;;;;;69.40;25.23;;;2.10;99.90;;;;;;5052219;28;20025;-69
2021/12/11 01:12:04;;;;;;;62.25;23.88;;;2.10;99.90;;;;;;5051761;28;20364;-69
2021/12/11 01:14:40;;;;;;;70.57;26.13;;;2.00;99.90;;;;;;5052109;28;20017;-70
2021/12/11 01:17:12;;;;;;;71.50;25.52;;;2.00;99.90;;;;;;5052112;28;20036;-70
2021/12/11 01:19:41;;;;;;;73.95;27.17;;;2.00;99.90;;;;;;5051882;28;20029;-70
2021/12/11 01:22:33;;;;;;;72.53;25.67;;;2.00;99.90;;;;;;5051994;28;20466;-69
2021/12/11 01:25:11;;;;;;;69.28;26.63;;;2.10;99.90;;;;;;5051979;28;20104;-71
2021/12/11 01:27:40;;;;;;;59.88;23.10;;;2.10;99.90;;;;;;5052010;28;20021;-71
2021/12/11 01:30:11;;;;;;;58.65;22.60;;;2.10;99.90;;;;;;5051770;28;20013;-70
2021/12/11 01:32:38;;;;;;;60.72;23.98;;;2.10;99.90;;;;;;5051423;28;20025;-71
2021/12/11 01:35:08;;;;;;;59.65;23.55;;;2.10;99.90;;;;;;5051944;28;20029;-70
2021/12/11 01:37:34;;;;;;;65.10;24.90;;;2.10;99.90;;;;;;5034135;28;20071;-71
2021/12/11 01:40:03;;;;;;;64.00;23.10;;;2.10;99.90;;;;;;5033677;28;20033;-70
2021/12/11 01:42:33;;;;;;;70.25;24.90;;;2.10;99.90;;;;;;5051388;28;20032;-70
2021/12/11 01:45:00;;;;;;;70.80;24.55;;;2.10;99.90;;;;;;5051821;28;20025;-70
2021/12/11 01:47:38;;;;;;;69.65;26.08;;;2.00;99.90;;;;;;5051769;28;20047;-68
2021/12/11 01:50:36;;;;;;;80.53;27.95;;;2.00;99.90;;;;;;5050640;28;20394;-70
2021/12/11 01:53:12;;;;;;;65.32;24.08;;;2.00;99.90;;;;;;5044788;28;20040;-69
2021/12/11 01:55:53;;;;;;;58.80;23.98;;;2.10;99.90;;;;;;5050748;28;20025;-72
2021/12/11 01:58:32;;;;;;;62.92;23.35;;;2.00;99.90;;;;;;5050468;28;20040;-70
2021/12/11 02:01:25;;;;;;;65.15;23.58;;;2.00;99.90;;;;;;5048534;28;20036;-70
2021/12/11 02:03:53;;;;;;;60.70;23.85;;;1.90;99.90;;;;;;5041782;28;20033;-70
2021/12/11 02:06:19;;;;;;;62.75;24.45;;;1.90;99.90;;;;;;5051032;28;20025;-68
2021/12/11 02:08:45;;;;;;;66.10;23.80;;;1.90;99.90;;;;;;5051544;28;20106;-70
2021/12/11 02:11:16;;;;;;;68.38;24.55;;;2.20;99.90;;;;;;5051313;28;20482;-69
2021/12/11 02:13:52;;;;;;;70.05;25.02;;;2.00;99.90;;;;;;5049821;28;20495;-70
2021/12/11 02:16:45;;;;;;;66.25;25.48;;;1.90;99.90;;;;;;5050317;28;20052;-69
2021/12/11 02:19:17;;;;;;;69.07;26.55;;;1.90;99.90;;;;;;5031396;28;20084;-70
2021/12/11 02:22:15;;;;;;;66.55;23.83;;;2.00;99.90;;;;;;5045178;28;20578;-70
2021/12/11 02:24:48;;;;;;;78.05;27.50;;;1.90;99.90;;;;;;5048062;28;20039;-69
2021/12/11 02:27:21;;;;;;;78.13;26.20;;;1.90;99.90;;;;;;5055528;28;20028;-71
2021/12/11 02:30:04;;;;;;;86.22;28.35;;;1.90;99.90;;;;;;5055289;28;20391;-70
2021/12/11 02:32:42;;;;;;;74.03;26.60;;;2.00;99.90;;;;;;5051921;28;20025;-70
2021/12/11 02:35:23;;;;;;;74.00;28.77;;;1.90;99.90;;;;;;5024627;28;20024;-71
2021/12/11 02:37:58;;;;;;;69.93;26.42;;;1.90;99.90;;;;;;5047739;28;20025;-69
2021/12/11 02:40:31;;;;;;;79.22;25.50;;;1.90;99.90;;;;;;5054667;28;20390;-70
2021/12/11 02:43:05;;;;;;;77.90;28.27;;;1.80;99.90;;;;;;5054828;28;20037;-70
2021/12/11 02:45:42;;;;;;;69.45;26.20;;;1.80;99.90;;;;;;5054609;28;20029;-71
2021/12/11 02:48:27;;;;;;;68.20;25.73;;;1.80;99.90;;;;;;5054796;28;20040;-70
2021/12/11 02:51:18;;;;;;;74.75;29.27;;;1.90;99.90;;;;;;5054883;28;20056;-70
2021/12/11 02:53:58;;;;;;;73.85;26.15;;;1.90;99.90;;;;;;5054163;28;20104;-69
2021/12/11 02:56:33;;;;;;;65.43;25.05;;;1.90;99.90;;;;;;5054384;28;20522;-70
2021/12/11 02:59:03;;;;;;;66.38;26.98;;;1.90;99.90;;;;;;5054758;28;20445;-70
2021/12/11 03:01:35;;;;;;;75.35;26.55;;;1.90;99.90;;;;;;5054499;28;20037;-70
2021/12/11 03:04:21;;;;;;;73.13;28.13;;;2.00;99.90;;;;;;5054601;28;20021;-70
2021/12/11 03:06:49;;;;;;;70.28;26.85;;;2.00;99.90;;;;;;5053503;28;20025;-70
2021/12/11 03:09:21;;;;;;;69.43;26.70;;;2.00;99.90;;;;;;5054533;28;20047;-70
2021/12/11 03:11:47;;;;;;;78.18;28.77;;;2.00;99.90;;;;;;5054496;28;20479;-70
2021/12/11 03:14:16;;;;;;;80.85;27.40;;;2.00;99.90;;;;;;5054245;28;20037;-70
2021/12/11 03:16:43;;;;;;;80.10;28.08;;;2.00;99.90;;;;;;5054262;28;20103;-71
2021/12/11 03:19:11;;;;;;;69.68;26.17;;;2.00;99.90;;;;;;5054612;28;20505;-68
2021/12/11 03:21:38;;;;;;;84.35;30.45;;;2.00;99.90;;;;;;5054308;28;20029;-70
2021/12/11 03:24:06;;;;;;;79.00;29.52;;;2.10;99.90;;;;;;5053824;28;20574;-70
2021/12/11 03:26:31;;;;;;;81.22;29.83;;;2.10;99.90;;;;;;5036453;28;20025;-70
2021/12/11 03:28:57;;;;;;;74.78;26.85;;;2.10;99.90;;;;;;5053961;28;20029;-69
2021/12/11 03:31:23;;;;;;;72.43;26.95;;;2.10;99.90;;;;;;5054201;28;20108;-69
2021/12/11 03:33:56;;;;;;;74.25;27.42;;;2.10;99.90;;;;;;5053528;28;20494;-69
2021/12/11 03:36:24;;;;;;;75.22;28.77;;;2.10;99.90;;;;;;5036035;28;20029;-69
2021/12/11 03:38:56;;;;;;;82.60;29.55;;;2.00;99.90;;;;;;5053908;28;20029;-69
2021/12/11 03:41:24;;;;;;;78.30;29.67;;;2.10;99.90;;;;;;5054329;28;20032;-70
2021/12/11 03:43:50;;;;;;;81.35;29.45;;;2.10;99.90;;;;;;5053728;28;20071;-69
2021/12/11 03:46:16;;;;;;;87.47;29.90;;;2.10;99.90;;;;;;5053636;28;20437;-69
2021/12/11 03:48:49;;;;;;;85.00;29.05;;;2.10;99.90;;;;;;5053868;28;20032;-68
2021/12/11 03:51:18;;;;;;;84.57;30.40;;;2.10;99.90;;;;;;5053458;28;20025;-70
2021/12/11 03:53:45;;;;;;;83.50;29.52;;;2.00;99.90;;;;;;5053549;28;20383;-66
2021/12/11 03:56:13;;;;;;;83.30;29.65;;;2.00;99.90;;;;;;5053378;28;20501;-70
2021/12/11 03:58:48;;;;;;;91.63;30.60;;;2.00;99.90;;;;;;5033852;28;20140;-70
2021/12/11 04:01:23;;;;;;;82.60;28.55;;;2.10;99.90;;;;;;5042729;28;20028;-69
2021/12/11 04:03:52;;;;;;;90.90;31.08;;;2.10;99.90;;;;;;5053244;28;20029;-70
2021/12/11 04:06:18;;;;;;;97.32;33.80;;;2.10;99.90;;;;;;5053089;28;20024;-69
2021/12/11 04:08:45;;;;;;;94.78;32.65;;;2.10;99.90;;;;;;5053195;28;20051;-69
2021/12/11 04:11:16;;;;;;;86.10;31.50;;;2.00;99.90;;;;;;5053339;28;20028;-70
2021/12/11 04:13:43;;;;;;;87.63;32.05;;;2.00;99.90;;;;;;5052787;28;20029;-72
2021/12/11 04:16:10;;;;;;;93.35;31.15;;;2.00;99.90;;;;;;5053296;28;20033;-69
2021/12/11 04:18:36;;;;;;;88.95;32.20;;;2.10;99.90;;;;;;5053157;28;20033;-69
2021/12/11 04:21:03;;;;;;;91.28;31.25;;;2.10;99.90;;;;;;5053004;28;20375;-70
2021/12/11 04:23:29;;;;;;;94.88;33.70;;;2.10;99.90;;;;;;5052653;28;20029;-70
2021/12/11 04:25:56;;;;;;;89.78;31.88;;;2.10;99.90;;;;;;5053066;28;20029;-70
2021/12/11 04:28:24;;;;;;;93.00;31.92;;;2.10;99.90;;;;;;5053084;28;20170;-70
2021/12/11 04:30:53;;;;;;;97.82;33.03;;;2.10;99.90;;;;;;5052842;28;20040;-69
2021/12/11 04:33:19;;;;;;;91.25;33.00;;;2.10;99.90;;;;;;5052748;28;20376;-69
2021/12/11 04:35:45;;;;;;;97.30;32.85;;;2.20;99.90;;;;;;5053147;28;20495;-68
2021/12/11 04:38:13;;;;;;;93.38;31.40;;;2.20;99.90;;;;;;5052637;28;20059;-70
2021/12/11 04:40:42;;;;;;;99.32;32.97;;;2.20;99.90;;;;;;5052647;28;20218;-69
2021/12/11 04:43:14;;;;;;;95.68;32.50;;;2.20;99.90;;;;;;5052340;28;20033;-70
2021/12/11 04:45:42;;;;;;;100.60;31.33;;;2.20;99.90;;;;;;5051811;28;20032;-70
2021/12/11 04:48:19;;;;;;;93.60;31.17;;;2.30;99.90;;;;;;5052802;28;20025;-70
2021/12/11 04:51:13;;;;;;;87.38;32.38;;;4.30;99.90;;;;;;5052604;28;20079;-69
2021/12/11 04:53:57;;;;;;;89.85;30.58;;;2.40;99.90;;;;;;5050387;28;20037;-70
2021/12/11 04:59:26;;;;;;;78.25;29.58;;;2.40;99.90;;;;;;5052879;28;20032;-69
2021/12/11 05:02:31;;;;;;;81.47;30.13;;;2.40;99.90;;;;;;5051906;28;20444;-70
2021/12/11 05:10:28;;;;;;;83.18;32.25;;;2.40;99.90;;;;;;5052078;28;20025;-69
2021/12/11 05:12:57;;;;;;;84.60;30.52;;;2.40;99.90;;;;;;5033919;28;20025;-70
2021/12/11 05:15:30;;;;;;;85.53;31.42;;;2.40;99.90;;;;;;5034352;28;20033;-69
2021/12/11 05:17:56;;;;;;;85.55;29.83;;;2.40;99.90;;;;;;5052284;28;20040;-70
2021/12/11 05:20:25;;;;;;;95.72;31.65;;;2.40;99.90;;;;;;5033904;28;20368;-69
2021/12/11 05:22:51;;;;;;;89.78;32.28;;;2.30;99.90;;;;;;5033923;28;20028;-69
2021/12/11 05:25:17;;;;;;;89.90;31.45;;;2.40;99.90;;;;;;5033598;28;20021;-71
2021/12/11 05:27:45;;;;;;;100.40;32.50;;;2.40;99.90;;;;;;5051703;28;20029;-69
2021/12/11 05:30:17;;;;;;;101.47;33.97;;;2.40;99.90;;;;;;5051917;28;20368;-68
2021/12/11 05:32:43;;;;;;;97.63;30.60;;;2.40;99.90;;;;;;5031856;28;20032;-68
2021/12/11 05:35:09;;;;;;;85.53;27.67;;;2.40;99.90;;;;;;5046224;28;20032;-69
2021/12/11 05:37:36;;;;;;;93.47;28.35;;;2.40;99.90;;;;;;5051975;28;20483;-69
2021/12/11 05:40:04;;;;;;;98.47;28.50;;;2.40;99.90;;;;;;5051386;28;20056;-69
2021/12/11 05:42:29;;;;;;;98.38;28.38;;;2.40;99.90;;;;;;5051187;28;20029;-70
2021/12/11 05:44:55;;;;;;;91.40;27.48;;;2.40;99.90;;;;;;5051403;28;20083;-69
2021/12/11 05:47:21;;;;;;;93.38;28.25;;;2.40;99.90;;;;;;5033489;28;20017;-69
2021/12/11 05:49:47;;;;;;;96.80;27.67;;;2.40;99.90;;;;;;5051318;28;20032;-70
2021/12/11 05:52:13;;;;;;;96.05;30.25;;;2.30;99.90;;;;;;5051295;28;20092;-69
2021/12/11 05:54:43;;;;;;;90.63;28.10;;;2.40;99.90;;;;;;5051531;28;20070;-68
2021/12/11 05:57:12;;;;;;;98.68;27.92;;;2.40;99.90;;;;;;5050676;28;20075;-69
2021/12/11 05:59:40;;;;;;;98.78;28.35;;;2.40;99.90;;;;;;5051416;28;20247;-69
2021/12/11 06:02:22;;;;;;;99.15;29.70;;;2.40;99.90;;;;;;5050831;28;20037;-69
2021/12/11 06:04:50;;;;;;;97.32;29.80;;;2.40;99.90;;;;;;5051449;28;20391;-67
2021/12/11 06:07:17;;;;;;;100.28;28.52;;;2.40;99.90;;;;;;5051021;28;20120;-69
2021/12/11 06:09:47;;;;;;;97.43;28.95;;;2.40;99.90;;;;;;5051358;28;20112;-68
2021/12/11 06:12:15;;;;;;;99.85;29.42;;;2.40;99.90;;;;;;5032946;28;20433;-68
2021/12/11 06:14:42;;;;;;;91.60;28.02;;;2.40;99.90;;;;;;5051222;28;20092;-71
2021/12/11 06:17:10;;;;;;;101.00;29.58;;;2.30;99.90;;;;;;5051276;28;20433;-71
2021/12/11 06:19:36;;;;;;;95.38;29.45;;;2.40;99.90;;;;;;5051161;28;20143;-71
2021/12/11 06:22:02;;;;;;;91.90;28.15;;;2.40;99.90;;;;;;5050749;28;20514;-69
2021/12/11 06:24:28;;;;;;;94.20;28.15;;;2.40;99.90;;;;;;5051259;28;20029;-69
2021/12/11 06:26:55;;;;;;;104.30;30.33;;;2.50;99.90;;;;;;5051212;28;20029;-69
2021/12/11 06:29:24;;;;;;;97.70;30.60;;;2.50;99.90;;;;;;5051254;28;20100;-69
2021/12/11 06:31:51;;;;;;;96.20;30.48;;;2.50;99.90;;;;;;5050576;28;20024;-69
2021/12/11 06:34:17;;;;;;;90.80;29.23;;;2.50;99.90;;;;;;5051145;28;20029;-69
2021/12/11 06:36:43;;;;;;;99.68;29.15;;;2.50;99.90;;;;;;5050521;28;20029;-69
2021/12/11 06:39:14;;;;;;;100.80;26.98;;;2.50;99.90;;;;;;5050985;28;20391;-70
2021/12/11 06:41:42;;;;;;;97.22;28.67;;;2.40;99.90;;;;;;5050690;28;20036;-70
2021/12/11 06:44:09;;;;;;;100.35;29.88;;;2.30;99.90;;;;;;5033119;28;20418;-70
2021/12/11 06:46:35;;;;;;;98.13;27.88;;;2.20;99.90;;;;;;5051185;28;20025;-70
2021/12/11 06:49:02;;;;;;;106.93;30.73;;;2.30;99.90;;;;;;5051094;28;20092;-70
2021/12/11 06:51:28;;;;;;;103.72;31.48;;;2.20;99.90;;;;;;5051297;28;20037;-70
2021/12/11 06:53:59;;;;;;;102.07;29.58;;;2.30;99.90;;;;;;5051538;28;20067;-70
2021/12/11 06:56:25;;;;;;;111.80;29.63;;;2.40;99.90;;;;;;5050652;28;20029;-69
2021/12/11 06:58:52;;;;;;;105.82;28.98;;;2.30;99.90;;;;;;5033188;28;20063;-69
2021/12/11 07:01:20;;;;;;;101.47;30.90;;;2.30;99.90;;;;;;5032877;28;20056;-70
2021/12/11 07:03:45;;;;;;;100.05;30.67;;;2.30;99.90;;;;;;5050474;28;20379;-69
2021/12/11 07:06:11;;;;;;;114.13;30.63;;;2.30;99.90;;;;;;5050472;28;20048;-68
2021/12/11 07:08:38;;;;;;;102.32;28.38;;;2.20;99.90;;;;;;5051383;28;20367;-69
2021/12/11 07:11:05;;;;;;;110.90;30.38;;;2.20;99.90;;;;;;5054200;28;20051;-68
2021/12/11 07:13:31;;;;;;;100.28;29.67;;;2.20;99.90;;;;;;5036165;28;20536;-69
2021/12/11 07:15:58;;;;;;;102.85;29.58;;;2.30;99.90;;;;;;5054450;28;20040;-68
2021/12/11 07:18:25;;;;;;;106.45;29.15;;;2.30;99.90;;;;;;5036196;28;20136;-69
2021/12/11 07:20:51;;;;;;;96.25;27.17;;;2.30;99.90;;;;;;5053987;28;20090;-69
2021/12/11 07:23:17;;;;;;;104.63;26.67;;;2.30;99.90;;;;;;5035902;28;20067;-69
2021/12/11 07:25:50;;;;;;;106.28;28.98;;;2.40;99.90;;;;;;5054421;28;20103;-68
2021/12/11 07:28:16;;;;;;;107.88;28.33;;;2.40;99.90;;;;;;5053933;28;20028;-68
2021/12/11 07:30:46;;;;;;;108.07;28.93;;;2.50;99.90;;;;;;4353905;28;10000827;-69
2021/12/11 07:33:12;;;;;;;100.45;29.60;;;2.60;99.90;;;;;;5050871;28;20017;-69
2021/12/11 07:35:40;;;;;;;103.63;27.20;;;2.60;99.90;;;;;;5050960;28;20021;-69
2021/12/11 07:38:07;;;;;;;94.40;28.23;;;2.60;99.90;;;;;;5051016;28;20021;-69
2021/12/11 07:40:37;;;;;;;101.95;27.67;;;2.60;99.90;;;;;;5033480;28;20411;-68
2021/12/11 07:43:04;;;;;;;101.75;28.33;;;2.70;99.90;;;;;;5032910;28;20257;-69
2021/12/11 07:45:31;;;;;;;95.35;29.60;;;2.70;99.90;;;;;;5051545;28;20021;-69
2021/12/11 07:47:57;;;;;;;96.63;27.88;;;2.70;99.90;;;;;;5051039;28;20059;-69
2021/12/11 07:50:23;;;;;;;88.93;26.83;;;2.80;99.90;;;;;;5050997;28;20033;-69
2021/12/11 07:52:49;;;;;;;99.13;28.13;;;2.80;99.90;;;;;;5032126;28;20064;-69
2021/12/11 07:55:15;;;;;;;92.10;28.25;;;2.80;99.90;;;;;;5050623;28;20065;-70
2021/12/11 07:57:42;;;;;;;90.60;28.65;;;2.90;99.90;;;;;;5050336;28;20037;-70
2021/12/11 08:00:10;;;;;;;88.10;27.55;;;2.90;99.90;;;;;;5050308;28;20035;-69
2021/12/11 08:02:36;;;;;;;84.22;27.95;;;3.00;99.90;;;;;;5050311;28;20040;-70
2021/12/11 08:05:04;;;;;;;91.40;27.30;;;2.80;99.90;;;;;;5050329;28;20095;-71
2021/12/11 08:07:30;;;;;;;85.28;25.75;;;2.70;99.90;;;;;;5049892;28;20430;-67
2021/12/11 08:09:55;;;;;;;87.40;27.23;;;2.80;99.90;;;;;;4702821;28;10000463;-69
2021/12/11 08:12:22;;;;;;;86.35;27.13;;;2.80;99.90;;;;;;5031687;28;20029;-69
2021/12/11 08:14:49;;;;;;;91.10;27.95;;;2.80;99.90;;;;;;5050307;28;20378;-70
2021/12/11 08:17:16;;;;;;;82.07;25.05;;;1.60;99.90;;;;;;5050283;28;20485;-68
2021/12/11 08:19:41;;;;;;;81.75;25.05;;;2.80;99.90;;;;;;5051336;28;20112;-69
2021/12/11 08:22:09;;;;;;;80.78;25.00;;;2.80;99.90;;;;;;5051812;28;20121;-69
2021/12/11 08:24:37;;;;;;;77.55;25.67;;;2.70;99.90;;;;;;5034529;28;20055;-69
2021/12/11 08:27:11;;;;;;;68.32;23.83;;;2.70;99.90;;;;;;5053059;28;20025;-68
2021/12/11 08:29:38;;;;;;;71.18;23.95;;;3.70;99.90;;;;;;5053179;28;20067;-69
2021/12/11 08:32:04;;;;;;;60.55;20.63;;;2.60;99.90;;;;;;5034963;28;20036;-70
2021/12/11 08:34:30;;;;;;;69.97;21.77;;;2.50;99.90;;;;;;5052221;28;20025;-70
2021/12/11 08:36:56;;;;;;;63.33;22.33;;;2.30;99.90;;;;;;5053121;28;20078;-69
2021/12/11 08:39:22;;;;;;;54.45;20.02;;;2.30;99.90;;;;;;5051767;28;20172;-69
2021/12/11 08:41:52;;;;;;;53.50;20.42;;;2.30;99.90;;;;;;5052567;28;20074;-69
2021/12/11 08:44:18;;;;;;;51.58;20.55;;;4.00;99.90;;;;;;5034709;28;20033;-69
2021/12/11 08:46:51;;;;;;;64.18;22.42;;;2.40;99.90;;;;;;5052983;28;20018;-70
2021/12/11 08:49:22;;;;;;;49.80;20.15;;;2.30;99.90;;;;;;5052501;28;20033;-69
2021/12/11 08:51:59;;;;;;;55.15;21.23;;;2.40;99.90;;;;;;5034607;28;20498;-70
2021/12/11 08:54:27;;;;;;;64.63;22.30;;;2.40;99.90;;;;;;5052251;28;20367;-68
2021/12/11 08:56:55;;;;;;;54.05;20.08;;;2.40;99.90;;;;;;5052782;28;20032;-72
2021/12/11 08:59:24;;;;;;;63.63;21.48;;;2.40;99.90;;;;;;4702255;28;10000435;-69
2021/12/11 09:01:55;;;;;;;59.72;22.35;;;2.40;99.90;;;;;;5049184;28;20040;-70
2021/12/11 09:04:29;;;;;;;61.42;22.27;;;2.40;99.90;;;;;;5048929;28;20059;-70
2021/12/11 09:07:11;;;;;;;71.13;23.00;;;2.40;99.90;;;;;;5049249;28;20639;-70
2021/12/11 09:09:49;;;;;;;64.85;22.20;;;2.40;99.90;;;;;;5048818;28;20028;-71
2021/12/11 09:12:20;;;;;;;61.95;20.45;;;2.30;99.90;;;;;;5048651;28;20304;-69
2021/12/11 09:14:51;;;;;;;53.75;19.20;;;2.10;99.90;;;;;;5048764;28;20083;-70
2021/12/11 09:17:45;;;;;;;61.03;20.65;;;1.90;99.90;;;;;;5049329;28;20525;-70
2021/12/11 09:20:14;;;;;;;57.88;20.17;;;2.00;99.90;;;;;;5049241;28;20637;-70
2021/12/11 09:22:47;;;;;;;67.60;20.67;;;2.10;99.90;;;;;;5049270;28;20033;-71
2021/12/11 09:25:23;;;;;;;55.70;20.63;;;2.20;99.90;;;;;;5049180;28;20025;-70
2021/12/11 09:27:54;;;;;;;58.22;20.63;;;2.10;99.90;;;;;;5048684;28;20028;-66
2021/12/11 09:30:36;;;;;;;53.65;20.45;;;2.00;99.90;;;;;;5048464;28;20147;-70
2021/12/11 09:33:10;;;;;;;48.65;16.17;;;2.00;99.90;;;;;;5045006;28;20025;-70
2021/12/11 09:35:39;;;;;;;68.50;20.15;;;1.90;99.90;;;;;;5048182;28;20120;-71
2021/12/11 09:38:10;;;;;;;53.53;18.13;;;1.90;99.90;;;;;;5029255;28;20472;-70
2021/12/11 09:40:39;;;;;;;54.13;18.85;;;1.80;99.90;;;;;;5045322;22;20086;-70
2021/12/11 09:43:04;;;;;;;44.65;17.15;;;2.00;99.90;;;;;;5067504;28;20052;-72
2021/12/11 09:45:38;;;;;;;51.22;17.88;;;2.10;99.90;;;;;;5063589;28;20080;-72
2021/12/11 09:48:09;;;;;;;38.70;16.63;;;2.00;99.90;;;;;;5064431;28;20024;-72
2021/12/11 09:50:47;;;;;;;34.28;14.98;;;2.10;99.90;;;;;;5087898;28;20398;-72
2021/12/11 09:53:15;;;;;;;39.78;15.07;;;2.00;99.90;;;;;;5050540;28;20032;-73
2021/12/11 09:55:42;;;;;;;35.67;14.77;;;2.00;99.90;;;;;;5068258;28;20044;-74
2021/12/11 09:58:12;;;;;;;37.40;14.98;;;2.00;99.90;;;;;;5068811;28;20032;-74
2021/12/11 10:00:43;;;;;;;43.67;15.85;;;2.00;99.90;;;;;;5065979;28;20107;-72
2021/12/11 10:03:14;;;;;;;37.25;14.27;;;2.10;99.90;;;;;;5053122;28;20163;-74
2021/12/11 10:05:55;;;;;;;45.40;15.77;;;5.40;99.90;;;;;;5057020;28;20059;-74
2021/12/11 10:11:09;;;;;;;55.88;17.60;;;2.40;99.90;;;;;;5059364;28;20139;-73
2021/12/11 10:13:40;;;;;;;48.75;17.40;;;2.40;99.90;;;;;;5033707;28;20037;-72
2021/12/11 10:16:06;;;;;;;50.50;18.45;;;2.50;99.90;;;;;;5056717;28;20032;-73
2021/12/11 10:18:32;;;;;;;62.38;20.90;;;2.50;99.90;;;;;;5051604;28;20033;-71
2021/12/11 10:21:16;;;;;;;53.25;18.50;;;2.50;99.90;;;;;;5062532;28;20025;-73
2021/12/11 10:23:46;;;;;;;52.83;18.67;;;2.60;99.90;;;;;;5053501;28;20029;-72
2021/12/11 10:26:14;;;;;;;57.63;19.15;;;2.60;99.90;;;;;;5060358;28;20012;-74
2021/12/11 10:28:44;;;;;;;58.10;19.50;;;2.60;99.90;;;;;;5056646;28;20017;-74
2021/12/11 10:31:21;;;;;;;53.97;18.20;;;2.80;99.90;;;;;;5055010;28;20391;-75
2021/12/11 10:33:48;;;;;;;58.70;19.35;;;2.90;99.90;;;;;;5058175;28;20064;-72
2021/12/11 10:36:16;;;;;;;55.45;19.20;;;3.10;99.90;;;;;;5057961;28;20450;-72
2021/12/11 10:38:45;;;;;;;63.97;19.90;;;3.30;99.90;;;;;;5058923;28;20028;-75
2021/12/11 10:41:12;;;;;;;59.80;20.02;;;3.40;99.90;;;;;;5059565;28;20056;-76
2021/12/11 10:43:46;;;;;;;53.03;18.90;;;3.40;99.90;;;;;;5051152;28;20550;-73
2021/12/11 10:46:15;;;;;;;50.22;18.83;;;3.30;99.90;;;;;;5064111;28;20024;-73
2021/12/11 10:48:42;;;;;;;49.33;18.55;;;3.30;99.90;;;;;;5061755;28;20052;-74
2021/12/11 10:51:25;;;;;;;53.78;17.00;;;3.30;99.90;;;;;;5036425;28;20017;-76
2021/12/11 10:53:51;;;;;;;49.45;18.60;;;3.40;99.90;;;;;;5067759;28;20138;-72
2021/12/11 10:56:20;;;;;;;48.15;17.63;;;3.40;99.90;;;;;;5052785;28;20025;-74
2021/12/11 10:58:51;;;;;;;51.88;19.42;;;3.20;99.90;;;;;;5054557;28;20033;-73
2021/12/11 11:01:27;;;;;;;41.20;17.42;;;3.10;99.90;;;;;;5066978;28;20063;-73
2021/12/11 11:04:09;;;;;;;38.25;16.48;;;3.10;99.90;;;;;;5067221;28;20637;-73
2021/12/11 11:06:36;;;;;;;42.25;16.27;;;2.90;99.90;;;;;;5059090;28;20067;-72
2021/12/11 11:09:04;;;;;;;43.38;16.45;;;2.70;99.90;;;;;;5058535;28;20094;-72
2021/12/11 11:11:32;;;;;;;39.63;17.00;;;2.70;99.90;;;;;;5051583;28;20533;-72
2021/12/11 11:14:00;;;;;;;45.60;16.50;;;2.80;99.90;;;;;;5066049;28;20025;-73
2021/12/11 11:16:26;;;;;;;39.83;17.27;;;2.50;99.90;;;;;;5057947;28;20020;-72
2021/12/11 11:18:52;;;;;;;40.08;17.27;;;;;;;;;;5059093;28;20075;-73
2021/12/11 11:21:29;;;;;;;39.05;16.45;;;2.50;99.90;;;;;;5064289;28;20033;-74
2021/12/11 11:23:55;;;;;;;35.17;15.50;;;2.40;99.90;;;;;;5053377;28;20020;-75
2021/12/11 11:26:25;;;;;;;44.33;15.82;;;2.60;99.90;;;;;;5067861;28;20020;-73
2021/12/11 11:28:52;;;;;;;44.00;18.10;;;2.90;99.90;;;;;;5058920;28;20029;-73
2021/12/11 11:31:23;;;;;;;39.50;16.00;;;2.50;99.90;;;;;;5064401;28;20413;-75
2021/12/11 11:33:49;;;;;;;52.10;20.00;;;2.50;99.90;;;;;;5054484;28;20056;-74
2021/12/11 11:36:18;;;;;;;45.95;17.13;;;2.50;99.90;;;;;;5065049;28;20049;-74
2021/12/11 11:38:49;;;;;;;41.47;15.57;;;2.70;99.90;;;;;;5059453;28;20032;-72
2021/12/11 11:41:19;;;;;;;40.30;16.67;;;3.00;99.90;;;;;;5056473;28;20427;-73
2021/12/11 11:43:46;;;;;;;43.67;17.20;;;3.00;99.90;;;;;;5067848;28;20548;-74
2021/12/11 11:46:13;;;;;;;41.88;17.23;;;;;;;;;;5073642;28;20070;-74
2021/12/11 11:48:42;;;;;;;34.78;14.57;;;3.20;99.90;;;;;;5073704;28;20074;-74
2021/12/11 11:51:25;;;;;;;37.85;16.13;;;3.10;99.90;;;;;;5075116;28;20059;-74
2021/12/11 11:53:51;;;;;;;44.50;16.75;;;3.00;99.90;;;;;;5074667;28;20028;-73
2021/12/11 11:56:20;;;;;;;37.20;15.32;;;3.30;99.90;;;;;;5072970;28;20103;-73
2021/12/11 11:58:46;;;;;;;38.40;15.43;;;3.20;99.90;;;;;;5073725;28;20032;-70
2021/12/11 12:01:24;;;;;;;35.88;14.43;;;4.00;99.90;;;;;;5073636;28;20028;-72
2021/12/11 12:03:51;;;;;;;32.72;14.88;;;3.20;99.90;;;;;;5073877;28;20052;-73
2021/12/11 12:06:23;;;;;;;31.75;13.55;;;3.10;99.90;;;;;;5074564;28;20099;-73
2021/12/11 12:08:51;;;;;;;31.13;14.75;;;3.20;99.90;;;;;;5074550;28;20024;-73
2021/12/11 12:11:18;;;;;;;31.52;14.82;;;2.80;99.90;;;;;;5073445;28;20497;-61
2021/12/11 12:13:44;;;;;;;38.70;15.27;;;;;;;;;;5062893;28;20494;-55
2021/12/11 12:16:12;;;;;;;37.35;15.63;;;2.10;99.90;;;;;;5065528;28;20032;-57
2021/12/11 12:18:41;;;;;;;35.13;15.38;;;2.20;99.90;;;;;;5059575;28;20021;-58
2021/12/11 12:21:10;;;;;;;39.58;15.68;;;2.30;99.90;;;;;;5065619;28;20035;-75
2021/12/11 12:23:36;;;;;;;30.95;15.27;;;;;;;;;;5037083;28;20028;-74
2021/12/11 12:26:10;;;;;;;38.65;16.70;;;2.30;99.90;;;;;;5051828;28;20044;-72
2021/12/11 12:28:36;;;;;;;34.28;14.98;;;;;;;;;;4358123;28;10000742;-73
2021/12/11 12:31:15;;;;;;;34.35;16.13;;;2.70;99.90;;;;;;5049140;28;20575;-74
2021/12/11 12:33:42;;;;;;;35.28;15.05;;;2.90;99.90;;;;;;5049206;28;20061;-74
2021/12/11 12:36:08;;;;;;;39.70;17.45;;;2.90;99.90;;;;;;5058678;28;20036;-74
2021/12/11 12:38:34;;;;;;;31.25;15.15;;;;;;;;;;5063862;28;20098;-74
2021/12/11 12:41:11;;;;;;;28.40;14.93;;;3.40;99.90;;;;;;5066376;28;20040;-73
2021/12/11 12:46:19;;;;;;;30.75;14.18;;;2.80;99.90;;;;;;5050841;28;20493;-73
2021/12/11 12:48:45;;;;;;;27.30;14.32;;;2.90;99.90;;;;;;5066480;28;20052;-74
2021/12/11 12:51:13;;;;;;;41.70;16.42;;;2.80;99.90;;;;;;5037956;28;20037;-74
2021/12/11 12:53:44;;;;;;;31.65;15.45;;;2.80;99.90;;;;;;5042054;28;20041;-73
2021/12/11 12:56:23;;;;;;;32.40;15.25;;;2.70;99.90;;;;;;5069932;28;20038;-74
2021/12/11 12:58:58;;;;;;;33.53;14.90;;;2.70;99.90;;;;;;5069911;28;20134;-72
2021/12/11 13:01:28;;;;;;;34.75;16.48;;;2.80;99.90;;;;;;5069705;28;20024;-73
2021/12/11 13:03:55;;;;;;;35.80;16.33;;;2.80;99.90;;;;;;5068725;28;20115;-73
2021/12/11 13:06:31;;;;;;;32.22;16.10;;;2.80;99.90;;;;;;5068980;28;20026;-73
2021/12/11 13:09:01;;;;;;;30.80;14.80;;;3.10;99.90;;;;;;5051078;28;20490;-73
2021/12/11 13:11:35;;;;;;;34.45;14.57;;;2.90;99.90;;;;;;5069324;28;20037;-74